Time;durP1;ratioP1;P1;durP2;ratioP2;P2;SDS_P1;SDS_P2;PMS_P1;PMS_P2;Temp;Humidity;BMP_temperature;BMP_pressure;BME280_temperature;BME280_humidity;BME280_pressure;Samples;Min_cycle;Max_cycle;Signal;HPM_P1;HPM_P2
2022/05/05 00:01:28;;;;;;;18.30;8.85;;;;;;;11.00;83.19;101966.72;5055542;28;20029;-82
2022/05/05 00:03:54;;;;;;;20.48;9.23;;;;;;;10.97;83.28;101967.81;5037427;28;20056;-81
2022/05/05 00:06:19;;;;;;;21.30;9.60;;;;;;;10.94;83.45;101967.25;5035947;28;20142;-81
2022/05/05 00:08:44;;;;;;;24.02;10.50;;;;;;;10.96;83.72;101965.28;5035921;28;20536;-81
2022/05/05 00:16:37;;;;;;;21.75;8.88;;;;;;;10.97;82.43;101962.47;5034982;28;20738;-81
2022/05/05 00:19:03;;;;;;;19.77;9.23;;;;;;;10.99;82.02;101962.34;5036592;28;20021;-81
2022/05/05 00:21:28;;;;;;;20.77;9.52;;;;;;;10.98;81.77;101969.53;5017727;28;20075;-81
2022/05/05 00:23:53;;;;;;;17.67;8.68;;;;;;;10.95;81.77;101960.94;5039352;28;20041;-81
2022/05/05 00:26:18;;;;;;;22.70;10.20;;;;;;;10.90;82.31;101956.00;5040059;28;20499;-82
2022/05/05 00:28:44;;;;;;;23.50;10.63;;;;;;;10.90;82.85;101957.81;5040313;28;20013;-81
2022/05/05 00:31:09;;;;;;;19.30;10.50;;;;;;;10.91;82.85;101962.16;5039269;28;20449;-81
2022/05/05 00:33:35;;;;;;;24.35;11.80;;;;;;;10.90;82.29;101963.16;5039466;28;20034;-81
2022/05/05 00:36:00;;;;;;;24.17;11.18;;;;;;;10.90;83.10;101965.84;5039417;28;20464;-81
2022/05/05 00:38:26;;;;;;;24.70;10.95;;;;;;;10.86;82.83;101965.25;5022315;28;20040;-82
2022/05/05 00:40:51;;;;;;;18.30;10.57;;;;;;;10.77;81.40;101958.88;5038824;28;20256;-81
2022/05/05 00:43:16;;;;;;;20.50;10.35;;;;;;;10.76;81.98;101959.00;5040059;28;20187;-81
2022/05/05 00:45:41;;;;;;;19.65;10.25;;;;;;;10.69;82.19;101944.50;5039038;28;20025;-81
2022/05/05 00:48:08;;;;;;;21.00;10.00;;;;;;;10.67;82.49;101957.16;5039234;28;20052;-81
2022/05/05 00:50:35;;;;;;;19.60;9.70;;;;;;;10.57;83.35;101951.78;5021004;28;20025;-82
2022/05/05 00:53:02;;;;;;;19.05;9.35;;;;;;;10.43;84.49;101945.81;5058438;28;20028;-82
2022/05/05 00:55:31;;;;;;;18.95;9.05;;;;;;;10.40;84.83;101948.75;5059208;28;20024;-82
2022/05/05 00:57:56;;;;;;;21.67;9.90;;;;;;;10.34;85.31;101953.78;5061789;28;20024;-82
2022/05/05 01:00:21;;;;;;;20.40;9.77;;;;;;;10.27;85.87;101953.44;5043704;28;20047;-82
2022/05/05 01:02:47;;;;;;;18.23;9.98;;;;;;;10.17;86.53;101944.53;5051404;28;20029;-82
2022/05/05 01:05:13;;;;;;;18.00;9.57;;;;;;;10.12;87.17;101950.25;5041609;28;20017;-82
2022/05/05 01:07:38;;;;;;;18.20;9.15;;;;;;;10.10;88.52;101952.22;5038440;28;20021;-82
2022/05/05 01:10:04;;;;;;;24.05;10.00;;;;;;;10.02;88.85;101957.34;5038150;28;20066;-81
2022/05/05 01:12:31;;;;;;;20.38;10.40;;;;;;;10.01;90.32;101955.63;5038162;28;20036;-82
2022/05/05 01:14:59;;;;;;;22.50;10.38;;;;;;;9.94;90.03;101954.47;5039434;28;20555;-81
2022/05/05 01:17:26;;;;;;;25.88;11.45;;;;;;;9.89;90.89;101954.84;5037594;28;20028;-80
2022/05/05 01:19:51;;;;;;;21.30;10.38;;;;;;;9.88;91.69;101954.03;5020739;28;20024;-81
2022/05/05 01:22:17;;;;;;;20.45;9.60;;;;;;;9.86;91.01;101958.66;5038498;28;20024;-81
2022/05/05 01:30:11;;;;;;;20.85;10.48;;;;;;;9.65;93.40;101950.59;5063549;28;20107;-82
2022/05/05 01:32:37;;;;;;;23.98;11.30;;;;;;;9.57;95.76;101955.72;5059501;28;20514;-82
2022/05/05 01:35:02;;;;;;;18.02;10.23;;;;;;;9.51;96.30;101950.91;5078590;28;20093;-81
2022/05/05 01:37:28;;;;;;;19.02;10.18;;;;;;;9.49;96.60;101945.69;5059069;28;20071;-81
2022/05/05 01:39:54;;;;;;;19.20;10.85;;;;;;;9.51;97.05;101956.25;5059526;28;20071;-80
2022/05/05 01:42:19;;;;;;;27.33;11.05;;;;;;;9.52;97.07;101939.25;5078583;28;20015;-81
2022/05/05 01:44:45;;;;;;;19.25;11.02;;;;;;;9.49;96.47;101945.69;5078741;28;20086;-82
2022/05/05 01:47:10;;;;;;;27.42;10.70;;;;;;;9.44;96.31;101947.06;5077220;28;20035;-81
2022/05/05 01:49:35;;;;;;;25.73;10.65;;;;;;;9.40;96.70;101957.13;5079085;28;20028;-82
2022/05/05 01:52:01;;;;;;;19.20;10.52;;;;;;;9.34;97.37;101947.81;5059672;28;20019;-82
2022/05/05 01:54:26;;;;;;;19.17;10.00;;;;;;;9.32;98.33;101947.09;5078715;28;20178;-82
2022/05/05 01:56:51;;;;;;;24.63;10.70;;;;;;;9.33;97.89;101948.78;5078344;28;20012;-82
2022/05/05 01:59:17;;;;;;;25.83;10.63;;;;;;;9.34;97.88;101950.47;5078958;28;20145;-82
2022/05/05 02:01:42;;;;;;;21.33;10.60;;;;;;;9.35;97.99;101951.31;5075969;28;20548;-81
2022/05/05 02:04:07;;;;;;;22.45;10.77;;;;;;;9.32;97.07;101957.75;5057734;28;20027;-81
2022/05/05 02:06:35;;;;;;;27.67;10.40;;;;;;;9.34;98.01;101952.31;5057298;28;20092;-82
2022/05/05 02:09:00;;;;;;;19.92;9.80;;;;;;;9.33;97.25;101954.13;5056123;28;20035;-82
2022/05/05 02:11:25;;;;;;;20.52;10.13;;;;;;;9.30;97.88;101956.16;5057390;28;20044;-82
2022/05/05 02:13:51;;;;;;;20.73;10.30;;;;;;;9.29;97.48;101957.16;5040045;28;20028;-82
2022/05/05 02:16:17;;;;;;;19.60;10.25;;;;;;;9.19;97.42;101958.88;5056505;28;20047;-82
2022/05/05 02:18:42;;;;;;;21.25;10.63;;;;;;;9.09;97.97;101959.63;5058232;28;20362;-82
2022/05/05 02:21:08;;;;;;;18.55;9.98;;;;;;;9.05;98.81;101960.84;5057570;28;20115;-82
2022/05/05 02:23:33;;;;;;;22.35;10.35;;;;;;;8.98;99.82;101969.44;5039475;28;20155;-82
2022/05/05 02:25:58;;;;;;;25.40;11.15;;;;;;;8.86;100.00;101963.28;5056316;28;20119;-81
2022/05/05 02:28:23;;;;;;;21.40;10.70;;;;;;;8.80;100.00;101963.78;5057638;28;20013;-82
2022/05/05 02:30:49;;;;;;;20.85;10.52;;;;;;;8.79;100.00;101962.91;5057849;28;20020;-82
2022/05/05 02:33:14;;;;;;;22.05;10.52;;;;;;;8.72;100.00;101969.69;5058017;28;20101;-81
2022/05/05 02:35:39;;;;;;;29.42;10.68;;;;;;;8.61;100.00;101965.22;5057462;28;20024;-81
2022/05/05 02:40:49;;;;;;;20.60;10.25;;;;;;;8.46;100.00;101972.59;5057030;28;20059;-81
2022/05/05 02:43:14;;;;;;;20.25;10.40;;;;;;;8.51;100.00;101969.59;5058146;28;20032;-81
2022/05/05 02:45:40;;;;;;;24.23;10.50;;;;;;;8.51;100.00;101965.09;5057823;28;20028;-82
2022/05/05 02:48:06;;;;;;;20.20;10.15;;;;;;;8.47;100.00;101958.34;5039400;28;20021;-81
2022/05/05 02:50:32;;;;;;;18.67;9.93;;;;;;;8.46;100.00;101967.28;5056051;28;20043;-81
2022/05/05 02:52:57;;;;;;;25.10;10.55;;;;;;;8.46;100.00;101969.94;5057773;28;20020;-81
2022/05/05 02:55:23;;;;;;;20.65;10.07;;;;;;;8.45;100.00;101973.56;5055256;28;20044;-81
2022/05/05 02:57:49;;;;;;;22.13;10.05;;;;;;;8.39;100.00;101964.22;5057465;28;20432;-81
2022/05/05 03:00:15;;;;;;;22.55;9.70;;;;;;;8.38;100.00;101962.53;5039140;28;20074;-81
2022/05/05 03:02:41;;;;;;;23.42;9.98;;;;;;;8.39;100.00;101969.53;5037979;28;20350;-81
2022/05/05 03:05:11;;;;;;;19.30;9.98;;;;;;;8.38;100.00;101959.00;5056861;28;20111;-81
2022/05/05 03:07:37;;;;;;;27.55;10.60;;;;;;;8.40;100.00;101965.03;5055813;28;20035;-81
2022/05/05 03:10:04;;;;;;;23.80;11.45;;;;;;;8.39;100.00;101966.88;5036868;28;20053;-81
2022/05/05 03:12:29;;;;;;;24.25;10.90;;;;;;;8.36;100.00;101955.63;5038553;28;20033;-80
2022/05/05 03:14:54;;;;;;;25.73;10.85;;;;;;;8.35;100.00;101965.44;5057536;28;20103;-81
2022/05/05 03:17:20;;;;;;;31.92;11.10;;;;;;;8.30;100.00;101969.38;5056370;28;20032;-81
2022/05/05 03:19:45;;;;;;;28.55;11.30;;;;;;;8.29;100.00;101967.72;5057483;28;20024;-81
2022/05/05 03:22:10;;;;;;;33.38;11.57;;;;;;;8.27;100.00;101972.31;5056457;28;20023;-81
2022/05/05 03:24:36;;;;;;;23.20;10.07;;;;;;;8.21;100.00;101971.81;5056796;28;20395;-81
2022/05/05 03:27:02;;;;;;;26.50;11.27;;;;;;;8.19;100.00;101968.41;5056756;28;20044;-81
2022/05/05 03:29:27;;;;;;;30.13;11.57;;;;;;;8.15;100.00;101964.28;5056715;28;20502;-81
2022/05/05 03:31:53;;;;;;;27.20;11.23;;;;;;;8.19;100.00;101970.22;5056568;28;20077;-81
2022/05/05 03:34:19;;;;;;;25.13;11.18;;;;;;;8.13;100.00;101966.22;5038610;28;20028;-81
2022/05/05 03:36:45;;;;;;;26.25;11.30;;;;;;;8.14;100.00;101972.41;5037506;28;20115;-82
2022/05/05 03:39:10;;;;;;;23.80;11.38;;;;;;;8.18;100.00;101971.19;5038786;28;20478;-81
2022/05/05 03:41:35;;;;;;;26.63;10.88;;;;;;;8.24;100.00;101967.22;5056637;28;20094;-82
2022/05/05 03:44:00;;;;;;;19.80;10.85;;;;;;;8.30;100.00;101974.72;5038820;28;20048;-81
2022/05/05 03:46:26;;;;;;;23.98;11.30;;;;;;;8.35;100.00;101978.72;5055931;28;20094;-82
2022/05/05 03:48:52;;;;;;;21.40;11.65;;;;;;;8.38;100.00;101970.53;5055881;28;20021;-81
2022/05/05 03:51:18;;;;;;;20.52;11.32;;;;;;;8.41;100.00;101972.91;5037144;28;20024;-81
2022/05/05 03:53:43;;;;;;;20.88;10.68;;;;;;;8.42;100.00;101965.81;5057183;28;20035;-82
2022/05/05 03:56:08;;;;;;;23.95;11.07;;;;;;;8.53;100.00;101975.63;5058419;28;20028;-82
2022/05/05 03:58:34;;;;;;;25.30;10.50;;;;;;;8.60;100.00;101976.84;5063971;28;20075;-81
2022/05/05 04:00:59;;;;;;;32.20;10.90;;;;;;;8.65;100.00;101981.81;5058577;28;20043;-82
2022/05/05 04:03:34;;;;;;;22.50;10.90;;;;;;;8.62;100.00;101990.03;5040303;28;20024;-82
2022/05/05 04:06:09;;;;;;;24.92;11.40;;;;;;;8.59;100.00;101994.66;5022119;28;20466;-82
2022/05/05 04:08:37;;;;;;;21.48;10.75;;;;;;;8.62;100.00;101998.88;5040640;28;20234;-82
2022/05/05 04:11:05;;;;;;;23.55;11.05;;;;;;;8.58;100.00;102000.09;5038972;28;20156;-81
2022/05/05 04:13:30;;;;;;;22.10;11.93;;;;;;;8.50;100.00;102000.69;5039757;28;20411;-82
2022/05/05 04:15:55;;;;;;;27.42;11.68;;;;;;;8.52;100.00;102004.09;5021192;28;20021;-82
2022/05/05 04:18:21;;;;;;;23.13;11.25;;;;;;;8.41;100.00;102009.34;5040059;28;20094;-82
2022/05/05 04:20:47;;;;;;;25.02;11.50;;;;;;;8.30;100.00;102010.19;5021177;28;20148;-82
2022/05/05 04:23:12;;;;;;;26.95;11.70;;;;;;;8.26;100.00;102016.69;5058357;28;20081;-81
2022/05/05 04:25:41;;;;;;;22.00;11.35;;;;;;;8.30;100.00;102011.97;5059258;28;20044;-81
2022/05/05 04:28:08;;;;;;;24.90;12.40;;;;;;;8.35;100.00;102005.34;5059616;28;20551;-82
2022/05/05 04:30:33;;;;;;;25.40;11.55;;;;;;;8.31;100.00;102011.84;5060276;28;20367;-81
2022/05/05 04:33:00;;;;;;;34.38;12.43;;;;;;;8.33;100.00;102014.41;5060034;28;20031;-81
2022/05/05 04:35:25;;;;;;;21.77;11.13;;;;;;;8.30;100.00;102026.16;5041014;28;20024;-81
2022/05/05 04:37:50;;;;;;;23.13;12.00;;;;;;;8.28;100.00;102011.25;5060163;28;20025;-81
2022/05/05 04:40:16;;;;;;;26.83;11.52;;;;;;;8.37;100.00;102026.53;5059092;28;20340;-82
2022/05/05 04:42:41;;;;;;;28.33;11.85;;;;;;;8.40;100.00;102026.28;5059023;28;20119;-82
2022/05/05 04:45:07;;;;;;;22.38;11.35;;;;;;;8.42;100.00;102016.38;5060264;28;20486;-82
2022/05/05 04:47:33;;;;;;;21.85;10.95;;;;;;;8.49;100.00;102014.97;5059571;28;20063;-82
2022/05/05 04:49:58;;;;;;;27.95;11.35;;;;;;;8.54;100.00;102019.94;5060021;28;20459;-82
2022/05/05 04:52:24;;;;;;;22.98;11.68;;;;;;;8.54;100.00;102023.44;5057315;28;20035;-82
2022/05/05 04:54:49;;;;;;;28.80;11.93;;;;;;;8.61;100.00;102029.16;5059137;28;20075;-82
2022/05/05 04:57:15;;;;;;;23.85;11.75;;;;;;;8.68;100.00;102030.34;5059943;28;20032;-82
2022/05/05 04:59:40;;;;;;;25.95;11.80;;;;;;;8.73;100.00;102030.84;5060306;28;20092;-81
2022/05/05 05:02:06;;;;;;;23.08;11.63;;;;;;;8.71;100.00;102027.47;5059732;28;20032;-81
2022/05/05 05:04:32;;;;;;;23.50;11.98;;;;;;;8.75;100.00;102026.25;5059246;28;20038;-81
2022/05/05 05:06:58;;;;;;;29.77;12.63;;;;;;;8.83;100.00;102033.66;5040779;28;20127;-82
2022/05/05 05:09:23;;;;;;;28.58;12.02;;;;;;;8.92;100.00;102029.41;5056835;28;20429;-81
2022/05/05 05:11:49;;;;;;;28.85;12.05;;;;;;;8.99;100.00;102035.94;5057965;28;20069;-80
2022/05/05 05:14:14;;;;;;;26.55;12.27;;;;;;;9.07;100.00;102038.00;5059650;28;20538;-82
2022/05/05 05:16:39;;;;;;;25.90;12.32;;;;;;;9.18;100.00;102045.97;5058406;28;20024;-81
2022/05/05 05:19:05;;;;;;;28.38;11.95;;;;;;;9.31;100.00;102041.34;5041346;28;20032;-81
2022/05/05 05:21:31;;;;;;;28.55;12.93;;;;;;;9.40;100.00;102045.13;5058547;28;20193;-82
2022/05/05 05:23:56;;;;;;;32.10;12.25;;;;;;;9.50;100.00;102046.06;5041210;28;20119;-82
2022/05/05 05:26:22;;;;;;;27.02;12.48;;;;;;;9.62;100.00;102054.03;5060295;28;20016;-82
2022/05/05 05:28:47;;;;;;;32.15;12.85;;;;;;;9.69;100.00;102047.22;5060361;28;20104;-82
2022/05/05 05:31:12;;;;;;;27.60;13.10;;;;;;;9.85;100.00;102057.50;5060048;28;20383;-82
2022/05/05 05:33:37;;;;;;;29.83;13.38;;;;;;;9.95;100.00;102057.59;5060223;28;20093;-82
2022/05/05 05:36:03;;;;;;;25.70;13.20;;;;;;;10.06;100.00;102062.88;5059609;28;20561;-82
2022/05/05 05:38:28;;;;;;;27.60;13.50;;;;;;;10.20;100.00;102057.22;5059749;28;20033;-82
2022/05/05 05:40:56;;;;;;;34.83;14.85;;;;;;;10.32;100.00;102066.06;5058633;28;20503;-82
2022/05/05 05:43:22;;;;;;;40.45;17.90;;;;;;;10.45;100.00;102064.06;5058782;28;20113;-82
2022/05/05 05:45:47;;;;;;;43.70;19.73;;;;;;;10.65;100.00;102064.16;5058479;28;20166;-82
2022/05/05 05:48:12;;;;;;;45.10;19.73;;;;;;;10.77;99.01;102054.25;5060059;28;20028;-82
2022/05/05 05:50:38;;;;;;;43.40;17.85;;;;;;;10.95;98.19;102068.69;5058282;28;20028;-82
2022/05/05 05:53:03;;;;;;;40.58;16.92;;;;;;;11.13;97.89;102070.72;5041250;28;20644;-82
2022/05/05 05:55:29;;;;;;;34.38;16.55;;;;;;;11.33;96.97;102071.66;5040145;28;20028;-82
2022/05/05 05:57:54;;;;;;;40.42;17.45;;;;;;;11.39;94.81;102063.09;5059012;28;20125;-82
2022/05/05 06:00:19;;;;;;;43.17;17.50;;;;;;;11.45;93.28;102059.84;5053228;28;20036;-82
2022/05/05 06:05:29;;;;;;;37.70;17.33;;;;;;;11.71;91.88;102065.56;5038429;28;20044;-82
2022/05/05 06:07:59;;;;;;;47.55;16.55;;;;;;;11.96;89.48;102074.06;5039001;28;20369;-81
2022/05/05 06:10:25;;;;;;;37.65;16.50;;;;;;;12.20;88.44;102080.81;5037699;28;20531;-81
2022/05/05 06:12:51;;;;;;;39.83;16.33;;;;;;;12.25;86.10;102067.84;5041117;28;20648;-82
2022/05/05 06:15:16;;;;;;;41.70;16.90;;;;;;;12.29;84.95;102072.78;5043401;28;20017;-82
2022/05/05 06:17:41;;;;;;;38.97;17.17;;;;;;;12.32;83.95;102079.69;5042091;28;20201;-82
2022/05/05 06:20:07;;;;;;;38.03;16.88;;;;;;;12.35;84.62;102079.41;5042366;28;20017;-82
2022/05/05 06:22:34;;;;;;;43.45;19.02;;;;;;;12.34;81.79;102069.69;5039282;28;20025;-83
2022/05/05 06:25:00;;;;;;;38.17;17.85;;;;;;;12.42;83.96;102077.88;5039271;28;20036;-82
2022/05/05 06:27:25;;;;;;;38.15;16.85;;;;;;;12.56;82.85;102075.69;5039376;28;20009;-81
2022/05/05 06:29:50;;;;;;;40.63;17.40;;;;;;;12.72;82.36;102084.00;5038928;28;20032;-82
2022/05/05 06:32:17;;;;;;;40.55;18.20;;;;;;;12.85;80.93;102070.28;5037807;28;20013;-81
2022/05/05 06:34:42;;;;;;;42.60;18.95;;;;;;;12.90;79.68;102083.25;5037342;28;20036;-82
2022/05/05 06:37:08;;;;;;;45.13;18.65;;;;;;;12.87;79.34;102085.22;5037210;28;20293;-82
2022/05/05 06:39:33;;;;;;;48.60;20.35;;;;;;;12.88;78.54;102083.38;5038452;28;20024;-82
2022/05/05 06:42:00;;;;;;;41.90;19.70;;;;;;;12.98;81.94;102086.03;5038618;28;20017;-82
2022/05/05 06:44:25;;;;;;;45.95;19.08;;;;;;;13.13;81.70;102089.09;5037162;28;20052;-82
2022/05/05 06:46:51;;;;;;;50.10;20.73;;;;;;;13.22;80.43;102089.06;5036181;28;20040;-82
2022/05/05 06:49:17;;;;;;;42.80;19.80;;;;;;;13.29;79.20;102097.38;5039633;28;20088;-82
2022/05/05 06:51:42;;;;;;;43.75;19.40;;;;;;;13.27;78.83;102099.31;5057715;28;20132;-83
2022/05/05 06:54:08;;;;;;;43.38;20.10;;;;;;;13.25;79.42;102093.28;5058791;28;20032;-82
2022/05/05 06:56:33;;;;;;;44.25;19.75;;;;;;;13.36;79.87;102098.50;5040380;28;20092;-82
2022/05/05 06:58:58;;;;;;;47.70;20.08;;;;;;;13.38;77.71;102099.19;5058455;28;20279;-82
2022/05/05 07:06:51;;;;;;;46.03;18.63;;;;;;;13.61;77.52;102106.81;5057280;28;20135;-82
2022/05/05 07:12:01;;;;;;;46.72;19.52;;;;;;;13.83;78.23;102116.28;5059310;28;20075;-82
2022/05/05 07:14:27;;;;;;;39.03;19.80;;;;;;;13.91;79.93;102120.91;5040362;28;20036;-82
2022/05/05 07:16:52;;;;;;;43.40;19.67;;;;;;;13.97;77.96;102128.38;5057739;28;20102;-82
2022/05/05 07:19:18;;;;;;;41.67;19.48;;;;;;;13.94;75.46;102121.47;5058345;28;20044;-81
2022/05/05 07:21:44;;;;;;;38.10;20.00;;;;;;;13.95;75.53;102133.91;5040294;28;20085;-81
2022/05/05 07:24:09;;;;;;;42.35;20.90;;;;;;;13.93;75.60;102137.72;5040483;28;20036;-81
2022/05/05 07:26:35;;;;;;;45.58;20.00;;;;;;;14.00;76.18;102138.78;5057904;28;20086;-81
2022/05/05 07:29:00;;;;;;;46.80;21.63;;;;;;;14.04;76.39;102137.50;5058708;28;20216;-82
2022/05/05 07:31:26;;;;;;;43.28;19.92;;;;;;;13.98;77.78;102141.66;5059483;28;20032;-81
2022/05/05 07:33:51;;;;;;;47.60;21.55;;;;;;;14.05;77.96;102146.41;5062928;28;20033;-82
2022/05/05 07:36:16;;;;;;;50.03;22.45;;;;;;;14.21;78.30;102151.13;5061832;28;20399;-81
2022/05/05 07:38:42;;;;;;;51.03;23.10;;;;;;;14.37;77.84;102148.56;5062353;28;20038;-81
2022/05/05 07:41:07;;;;;;;52.95;23.02;;;;;;;14.43;77.33;102157.88;5060639;28;20073;-82
2022/05/05 07:43:33;;;;;;;47.88;22.60;;;;;;;14.49;77.95;102159.94;5062473;28;20364;-82
2022/05/05 07:45:58;;;;;;;44.05;22.45;;;;;;;14.63;77.11;102155.88;5062317;28;20471;-81
2022/05/05 07:48:23;;;;;;;53.10;25.48;;;;;;;14.72;77.76;102150.41;5063243;28;20024;-81
2022/05/05 07:50:49;;;;;;;52.63;25.80;;;;;;;14.85;78.61;102154.53;5063106;28;20451;-82
2022/05/05 07:53:15;;;;;;;52.65;24.15;;;;;;;14.80;75.06;102159.53;5061591;28;20060;-82
2022/05/05 07:55:40;;;;;;;52.85;25.08;;;;;;;14.82;75.15;102153.00;5061075;28;20157;-82
2022/05/05 07:58:05;;;;;;;57.17;27.10;;;;;;;14.92;75.05;102158.31;5062652;28;20032;-82
2022/05/05 08:00:31;;;;;;;67.45;30.90;;;;;;;14.87;75.41;102149.84;5068723;28;20024;-82
2022/05/05 08:02:56;;;;;;;66.38;28.02;;;;;;;14.97;75.39;102161.34;5083124;28;20024;-81
2022/05/05 08:05:22;;;;;;;64.32;29.67;;;;;;;15.04;75.50;102157.03;5082156;28;20079;-82
2022/05/05 08:07:49;;;;;;;60.78;27.52;;;;;;;15.19;76.23;102159.97;5082747;28;20016;-82
2022/05/05 08:10:20;;;;;;;64.93;29.42;;;;;;;15.19;74.92;102165.38;5080954;28;20055;-82
2022/05/05 08:12:45;;;;;;;75.10;30.43;;;;;;;15.23;76.46;102166.72;5088068;28;20036;-82
2022/05/05 08:15:11;;;;;;;70.43;32.08;;;;;;;15.24;76.29;102172.94;5085245;28;20270;-81
2022/05/05 08:17:37;;;;;;;68.72;32.22;;;;;;;15.37;78.12;102181.44;5085528;28;20119;-83
2022/05/05 08:20:05;;;;;;;69.75;32.20;;;;;;;15.47;76.88;102176.78;5083653;28;20462;-82
2022/05/05 08:22:31;;;;;;;74.75;32.10;;;;;;;15.61;76.49;102177.16;5081153;28;20024;-82
2022/05/05 08:30:24;;;;;;;60.70;28.83;;;;;;;15.89;73.27;102185.91;5060893;28;20588;-83
2022/05/05 08:32:50;;;;;;;56.40;27.88;;;;;;;15.79;73.32;102180.66;5043585;28;20025;-82
2022/05/05 08:35:15;;;;;;;59.85;29.98;;;;;;;15.72;73.39;102192.22;5061533;28;20166;-83
2022/05/05 08:37:40;;;;;;;64.20;30.65;;;;;;;15.78;74.44;102196.97;5061196;28;20107;-83
2022/05/05 08:40:07;;;;;;;72.80;34.15;;;;;;;15.84;73.20;102194.47;5043075;28;20039;-82
2022/05/05 08:42:33;;;;;;;78.75;36.55;;;;;;;16.01;72.94;102197.22;5062009;28;20032;-80
2022/05/05 08:44:59;;;;;;;81.22;36.88;;;;;;;16.12;74.68;102191.50;5061319;28;20021;-81
2022/05/05 08:47:26;;;;;;;83.75;37.15;;;;;;;16.18;72.48;102195.41;5043521;28;20028;-81
2022/05/05 08:49:57;;;;;;;83.22;37.67;;;;;;;16.25;72.11;102191.06;5042746;28;20047;-81
2022/05/05 08:52:24;;;;;;;85.68;36.55;;;;;;;16.37;71.83;102192.41;5061150;28;20028;-81
2022/05/05 08:54:50;;;;;;;87.07;38.35;;;;;;;16.50;69.55;102199.19;5061051;28;20044;-81
2022/05/05 08:57:15;;;;;;;84.53;38.47;;;;;;;16.67;69.87;102203.56;5060368;28;20070;-80
2022/05/05 08:59:41;;;;;;;87.65;37.70;;;;;;;16.86;69.70;102205.13;5060343;28;20031;-82
2022/05/05 09:02:07;;;;;;;85.68;38.33;;;;;;;16.93;69.36;102206.13;5040612;28;20037;-81
2022/05/05 09:04:33;;;;;;;90.65;38.05;;;;;;;16.90;67.59;102198.34;5022851;28;20028;-82
2022/05/05 09:06:58;;;;;;;79.55;36.88;;;;;;;17.04;68.21;102214.88;5040417;28;20017;-82
2022/05/05 09:09:25;;;;;;;82.95;37.65;;;;;;;17.06;66.49;102219.09;5022354;28;20438;-82
2022/05/05 09:12:19;;;;;;;75.90;36.85;;;;;;;17.02;67.87;102217.75;5039892;28;20089;-82
2022/05/05 09:14:49;;;;;;;76.60;35.67;;;;;;;17.08;67.68;102214.38;5022924;28;20725;-82
2022/05/05 09:17:26;;;;;;;80.30;37.72;;;;;;;17.04;67.08;102214.88;5022303;28;20430;-82
2022/05/05 09:19:56;;;;;;;73.07;36.17;;;;;;;17.17;67.48;102208.97;5039779;28;20021;-82
2022/05/05 09:22:24;;;;;;;81.15;37.35;;;;;;;17.24;69.37;102207.25;5040196;28;20036;-83
2022/05/05 09:24:51;;;;;;;77.43;38.58;;;;;;;17.29;68.17;102213.84;5059097;28;20062;-82
2022/05/05 09:27:27;;;;;;;80.10;37.88;;;;;;;17.50;67.97;102207.88;5060309;28;20016;-82
2022/05/05 09:30:08;;;;;;;67.70;35.83;;;;;;;17.51;64.92;102217.69;5058920;28;20171;-83
2022/05/05 09:32:34;;;;;;;;;;;;;;;17.59;64.86;102216.78;5060561;28;20029;-82
2022/05/05 09:35:03;;;;;;;70.78;35.70;;;;;;;17.28;63.71;102214.03;5060590;28;20406;-81
2022/05/05 09:37:29;;;;;;;74.70;34.22;;;;;;;17.43;65.43;102220.41;5057344;28;20032;-81
2022/05/05 09:39:58;;;;;;;79.03;37.10;;;;;;;17.51;64.13;102224.91;5041169;28;20440;-81
2022/05/05 09:42:37;;;;;;;78.90;36.25;;;;;;;17.66;64.76;102216.94;5059216;28;20459;-81
2022/05/05 09:45:31;;;;;;;74.53;35.85;;;;;;;17.73;64.49;102214.38;5041111;28;20119;-82
2022/05/05 09:48:06;;;;;;;70.07;34.33;;;;;;;17.73;64.00;102220.63;5055613;28;20040;-82
2022/05/05 09:50:42;;;;;;;73.78;35.30;;;;;;;17.71;62.98;102215.38;5056921;28;20378;-82
2022/05/05 09:59:40;;;;;;;77.80;35.13;;;;;;;18.03;63.72;102220.88;5059561;28;20052;-82
2022/05/05 10:02:16;;;;;;;85.85;38.15;;;;;;;18.06;60.18;102225.94;5059721;28;20047;-82
2022/05/05 10:04:49;;;;;;;74.82;36.17;;;;;;;18.03;60.21;102240.63;5059671;28;20532;-82
2022/05/05 10:07:16;;;;;;;65.70;34.97;;;;;;;18.12;60.14;102227.91;5059786;28;20695;-82
2022/05/05 10:09:43;;;;;;;78.28;36.03;;;;;;;18.19;61.05;102231.56;5059589;28;20332;-82
2022/05/05 10:12:10;;;;;;;70.50;35.92;;;;;;;18.22;59.64;102228.53;5054709;28;20041;-82
2022/05/05 10:14:35;;;;;;;80.57;37.65;;;;;;;18.11;58.90;102226.25;5039648;28;20476;-81
2022/05/05 10:17:02;;;;;;;70.28;35.05;;;;;;;18.35;60.99;102224.41;5053574;28;20040;-82
2022/05/05 10:19:27;;;;;;;65.95;33.25;;;;;;;18.60;57.69;102223.22;5042080;28;20024;-82
2022/05/05 10:22:11;;;;;;;64.82;33.13;;;;;;;18.80;58.81;102228.97;5038759;28;20416;-82
2022/05/05 10:24:50;;;;;;;67.95;33.70;;;;;;;18.93;56.63;102228.38;5041810;28;20095;-83
2022/05/05 10:27:16;;;;;;;64.47;32.92;;;;;;;18.98;55.94;102222.44;5057026;28;20379;-82
2022/05/05 10:29:43;;;;;;;59.03;31.90;;;;;;;19.25;56.57;102215.56;5042772;28;20311;-83
2022/05/05 10:32:10;;;;;;;67.57;32.58;;;;;;;19.61;55.87;102219.41;5042729;28;20419;-82
2022/05/05 10:34:40;;;;;;;63.47;31.13;;;;;;;19.52;53.40;102222.19;5042364;28;20021;-82
2022/05/05 10:37:10;;;;;;;57.33;31.48;;;;;;;19.63;53.60;102229.00;5041837;28;20632;-82
2022/05/05 10:39:59;;;;;;;58.00;29.65;;;;;;;19.83;54.04;102226.59;5037915;28;20131;-82
2022/05/05 10:42:30;;;;;;;57.67;31.60;;;;;;;19.77;53.65;102221.09;5036528;28;20060;-83
2022/05/05 10:45:07;;;;;;;60.30;31.15;;;;;;;19.72;52.68;102230.63;5038853;28;20281;-82
2022/05/05 10:48:24;;;;;;;59.20;29.33;;;;;;;19.88;53.63;102223.34;5038480;28;20036;-81
2022/05/05 10:50:49;;;;;;;53.65;28.42;;;;;;;19.86;52.57;102215.38;5051621;28;20050;-82
2022/05/05 10:53:27;;;;;;;55.45;29.45;;;;;;;19.98;53.24;102228.47;5057637;28;20096;-82
2022/05/05 10:55:52;;;;;;;52.85;27.10;;;;;;;20.19;52.41;102225.78;5057311;28;20202;-81
2022/05/05 10:58:56;;;;;;;37.17;21.27;;;;;;;20.21;50.83;102225.59;5058712;28;20036;-81
2022/05/05 11:01:22;;;;;;;42.88;21.23;;;;;;;20.22;50.35;102225.41;5055343;28;20024;-82
2022/05/05 11:04:17;;;;;;;39.42;19.52;;;;;;;20.28;50.27;102223.78;5058442;28;20031;-82
2022/05/05 11:06:43;;;;;;;32.55;18.98;;;;;;;20.41;48.90;102221.22;5057562;28;20146;-82
2022/05/05 11:09:09;;;;;;;35.30;18.52;;;;;;;20.66;49.41;102216.28;5056195;28;20124;-82
2022/05/05 11:11:41;;;;;;;34.72;18.60;;;;;;;20.85;51.15;102222.91;5069995;28;20229;-82
2022/05/05 11:22:52;;;;;;;36.83;20.05;;;;;;;20.97;47.25;102216.97;5014371;28;20068;-82
2022/05/05 11:25:18;;;;;;;43.25;21.80;;;;;;;21.19;46.74;102223.19;5037513;28;20025;-81
2022/05/05 11:27:43;;;;;;;35.80;20.88;;;;;;;21.22;49.30;102223.63;5038008;28;20028;-82
2022/05/05 11:30:13;;;;;;;42.55;22.95;;;;;;;21.20;47.62;102223.00;5035344;28;20345;-81
2022/05/05 11:32:43;;;;;;;37.90;21.17;;;;;;;21.41;47.92;102219.34;5035735;28;20083;-82
2022/05/05 11:35:10;;;;;;;42.97;22.88;;;;;;;21.50;47.53;102230.09;5038046;28;20314;-83
2022/05/05 11:37:35;;;;;;;40.85;22.52;;;;;;;21.54;46.95;102229.50;5038102;28;20617;-82
2022/05/05 11:40:02;;;;;;;40.92;22.08;;;;;;;21.57;48.37;102220.09;5037254;28;20112;-82
2022/05/05 11:42:28;;;;;;;44.95;23.38;;;;;;;21.66;48.06;102218.06;5037491;28;20065;-82
2022/05/05 11:44:53;;;;;;;43.13;22.55;;;;;;;21.69;46.44;102232.09;5037416;28;20059;-82
2022/05/05 11:47:21;;;;;;;43.67;24.98;;;;;;;21.31;46.04;102223.47;5038097;28;20025;-82
2022/05/05 11:49:48;;;;;;;41.88;24.75;;;;;;;21.17;46.64;102226.09;5038668;28;20098;-82
2022/05/05 11:52:26;;;;;;;47.50;26.33;;;;;;;20.73;47.95;102226.38;5038947;28;20487;-83
2022/05/05 11:54:57;;;;;;;50.17;27.52;;;;;;;20.65;48.35;102220.00;5019940;28;20029;-83
2022/05/05 11:57:32;;;;;;;50.47;26.70;;;;;;;20.89;48.88;102219.81;5038820;28;20078;-82